sensor_id;sensor_type;location;lat;lon;timestamp;P1;durP1;ratioP1;P2;durP2;ratioP2
18200;SDS011;9226;47.858;9.594;2023-06-22T00:01:10;16.53;;;6.17;;
18200;SDS011;9226;47.858;9.594;2023-06-22T00:03:35;16.23;;;6.13;;
18200;SDS011;9226;47.858;9.594;2023-06-22T00:06:01;14.27;;;5.30;;
18200;SDS011;9226;47.858;9.594;2023-06-22T00:08:26;16.50;;;5.40;;
18200;SDS011;9226;47.858;9.594;2023-06-22T00:10:52;22.80;;;6.50;;
18200;SDS011;9226;47.858;9.594;2023-06-22T00:13:17;13.40;;;5.40;;
18200;SDS011;9226;47.858;9.594;2023-06-22T00:15:43;14.90;;;5.63;;
18200;SDS011;9226;47.858;9.594;2023-06-22T00:18:09;14.50;;;5.30;;
18200;SDS011;9226;47.858;9.594;2023-06-22T00:20:35;10.73;;;5.77;;
18200;SDS011;9226;47.858;9.594;2023-06-22T00:23:05;16.57;;;5.60;;
18200;SDS011;9226;47.858;9.594;2023-06-22T00:25:35;20.37;;;5.90;;
18200;SDS011;9226;47.858;9.594;2023-06-22T00:28:01;12.17;;;5.50;;
18200;SDS011;9226;47.858;9.594;2023-06-22T00:30:27;12.43;;;5.10;;
18200;SDS011;9226;47.858;9.594;2023-06-22T00:32:52;12.07;;;5.60;;
18200;SDS011;9226;47.858;9.594;2023-06-22T00:35:18;12.03;;;5.30;;
18200;SDS011;9226;47.858;9.594;2023-06-22T00:37:44;13.20;;;5.53;;
18200;SDS011;9226;47.858;9.594;2023-06-22T00:40:09;15.77;;;5.47;;
18200;SDS011;9226;47.858;9.594;2023-06-22T00:42:38;15.57;;;6.43;;
18200;SDS011;9226;47.858;9.594;2023-06-22T00:45:07;11.73;;;5.20;;
18200;SDS011;9226;47.858;9.594;2023-06-22T00:47:36;16.97;;;5.53;;
18200;SDS011;9226;47.858;9.594;2023-06-22T00:50:02;16.60;;;5.43;;
18200;SDS011;9226;47.858;9.594;2023-06-22T00:52:31;13.37;;;5.53;;
18200;SDS011;9226;47.858;9.594;2023-06-22T00:55:00;12.10;;;6.03;;
18200;SDS011;9226;47.858;9.594;2023-06-22T00:57:27;18.43;;;5.90;;
18200;SDS011;9226;47.858;9.594;2023-06-22T00:59:53;15.33;;;5.27;;
18200;SDS011;9226;47.858;9.594;2023-06-22T01:02:19;15.40;;;5.50;;
18200;SDS011;9226;47.858;9.594;2023-06-22T01:04:45;12.60;;;4.70;;
18200;SDS011;9226;47.858;9.594;2023-06-22T01:10:08;19.87;;;5.53;;
18200;SDS011;9226;47.858;9.594;2023-06-22T01:13:01;15.40;;;5.70;;
18200;SDS011;9226;47.858;9.594;2023-06-22T01:15:31;14.50;;;5.77;;
18200;SDS011;9226;47.858;9.594;2023-06-22T01:18:00;15.23;;;5.73;;
18200;SDS011;9226;47.858;9.594;2023-06-22T01:20:29;16.40;;;5.93;;
18200;SDS011;9226;47.858;9.594;2023-06-22T01:25:26;14.73;;;6.07;;
18200;SDS011;9226;47.858;9.594;2023-06-22T01:27:58;15.27;;;5.77;;
18200;SDS011;9226;47.858;9.594;2023-06-22T01:30:32;17.87;;;5.30;;
18200;SDS011;9226;47.858;9.594;2023-06-22T01:32:59;19.43;;;6.07;;
18200;SDS011;9226;47.858;9.594;2023-06-22T01:35:28;17.13;;;5.70;;
18200;SDS011;9226;47.858;9.594;2023-06-22T01:37:54;14.63;;;5.50;;
18200;SDS011;9226;47.858;9.594;2023-06-22T01:40:20;16.27;;;6.87;;
18200;SDS011;9226;47.858;9.594;2023-06-22T01:42:46;17.60;;;5.83;;
18200;SDS011;9226;47.858;9.594;2023-06-22T01:45:13;16.73;;;5.87;;
18200;SDS011;9226;47.858;9.594;2023-06-22T01:47:39;18.73;;;6.53;;
18200;SDS011;9226;47.858;9.594;2023-06-22T01:50:06;13.77;;;6.43;;
18200;SDS011;9226;47.858;9.594;2023-06-22T01:52:32;16.00;;;6.13;;
18200;SDS011;9226;47.858;9.594;2023-06-22T01:54:59;17.17;;;6.57;;
18200;SDS011;9226;47.858;9.594;2023-06-22T01:57:25;13.20;;;5.63;;
18200;SDS011;9226;47.858;9.594;2023-06-22T02:02:35;15.87;;;6.60;;
18200;SDS011;9226;47.858;9.594;2023-06-22T02:05:07;21.00;;;6.90;;
18200;SDS011;9226;47.858;9.594;2023-06-22T02:07:39;18.67;;;7.40;;
18200;SDS011;9226;47.858;9.594;2023-06-22T02:10:09;16.77;;;6.50;;
18200;SDS011;9226;47.858;9.594;2023-06-22T02:12:39;16.10;;;6.53;;
18200;SDS011;9226;47.858;9.594;2023-06-22T02:15:07;19.90;;;7.00;;
18200;SDS011;9226;47.858;9.594;2023-06-22T02:17:33;17.23;;;6.77;;
18200;SDS011;9226;47.858;9.594;2023-06-22T02:19:59;16.73;;;7.03;;
18200;SDS011;9226;47.858;9.594;2023-06-22T02:22:27;16.57;;;7.27;;
18200;SDS011;9226;47.858;9.594;2023-06-22T02:24:53;14.87;;;6.77;;
18200;SDS011;9226;47.858;9.594;2023-06-22T02:27:18;19.97;;;7.47;;
18200;SDS011;9226;47.858;9.594;2023-06-22T02:29:43;13.50;;;6.53;;
18200;SDS011;9226;47.858;9.594;2023-06-22T02:32:09;17.20;;;7.17;;
18200;SDS011;9226;47.858;9.594;2023-06-22T02:34:35;15.73;;;7.43;;
18200;SDS011;9226;47.858;9.594;2023-06-22T02:37:01;18.23;;;7.13;;
18200;SDS011;9226;47.858;9.594;2023-06-22T02:39:27;15.23;;;7.33;;
18200;SDS011;9226;47.858;9.594;2023-06-22T02:41:53;19.27;;;7.43;;
18200;SDS011;9226;47.858;9.594;2023-06-22T02:44:19;14.07;;;7.70;;
18200;SDS011;9226;47.858;9.594;2023-06-22T02:46:46;17.43;;;7.60;;
18200;SDS011;9226;47.858;9.594;2023-06-22T02:49:12;21.80;;;8.13;;
18200;SDS011;9226;47.858;9.594;2023-06-22T02:51:38;19.50;;;8.23;;
18200;SDS011;9226;47.858;9.594;2023-06-22T02:54:09;22.83;;;8.50;;
18200;SDS011;9226;47.858;9.594;2023-06-22T02:56:34;16.83;;;7.73;;
18200;SDS011;9226;47.858;9.594;2023-06-22T02:59:01;13.90;;;7.57;;
18200;SDS011;9226;47.858;9.594;2023-06-22T03:01:27;19.73;;;8.53;;
18200;SDS011;9226;47.858;9.594;2023-06-22T03:03:55;13.80;;;7.77;;
18200;SDS011;9226;47.858;9.594;2023-06-22T03:06:23;17.27;;;8.20;;
18200;SDS011;9226;47.858;9.594;2023-06-22T03:08:53;19.40;;;8.70;;
18200;SDS011;9226;47.858;9.594;2023-06-22T03:11:21;19.73;;;8.03;;
18200;SDS011;9226;47.858;9.594;2023-06-22T03:13:47;19.17;;;8.07;;
18200;SDS011;9226;47.858;9.594;2023-06-22T03:16:12;19.17;;;8.50;;
18200;SDS011;9226;47.858;9.594;2023-06-22T03:18:37;18.07;;;8.13;;
18200;SDS011;9226;47.858;9.594;2023-06-22T03:21:03;21.90;;;8.00;;
18200;SDS011;9226;47.858;9.594;2023-06-22T03:23:28;18.33;;;7.83;;
18200;SDS011;9226;47.858;9.594;2023-06-22T03:25:53;17.03;;;8.13;;
18200;SDS011;9226;47.858;9.594;2023-06-22T03:28:20;19.70;;;8.87;;
18200;SDS011;9226;47.858;9.594;2023-06-22T03:30:46;21.47;;;8.63;;
18200;SDS011;9226;47.858;9.594;2023-06-22T03:33:12;17.17;;;7.87;;
18200;SDS011;9226;47.858;9.594;2023-06-22T03:35:37;21.33;;;8.63;;
18200;SDS011;9226;47.858;9.594;2023-06-22T03:38:03;21.30;;;8.40;;
18200;SDS011;9226;47.858;9.594;2023-06-22T03:40:29;19.53;;;8.20;;
18200;SDS011;9226;47.858;9.594;2023-06-22T03:42:54;17.50;;;8.07;;
18200;SDS011;9226;47.858;9.594;2023-06-22T03:45:20;16.70;;;8.50;;
18200;SDS011;9226;47.858;9.594;2023-06-22T03:47:45;17.47;;;8.10;;
18200;SDS011;9226;47.858;9.594;2023-06-22T03:50:10;17.73;;;8.20;;
18200;SDS011;9226;47.858;9.594;2023-06-22T03:52:36;19.80;;;8.40;;
18200;SDS011;9226;47.858;9.594;2023-06-22T03:55:01;15.67;;;7.77;;
18200;SDS011;9226;47.858;9.594;2023-06-22T03:57:27;15.10;;;8.13;;
18200;SDS011;9226;47.858;9.594;2023-06-22T03:59:54;18.73;;;8.40;;
18200;SDS011;9226;47.858;9.594;2023-06-22T04:02:19;17.73;;;8.43;;
18200;SDS011;9226;47.858;9.594;2023-06-22T04:04:44;14.80;;;8.60;;
18200;SDS011;9226;47.858;9.594;2023-06-22T04:07:10;21.63;;;7.97;;
18200;SDS011;9226;47.858;9.594;2023-06-22T04:09:35;16.57;;;7.97;;
18200;SDS011;9226;47.858;9.594;2023-06-22T04:12:01;20.93;;;8.90;;
18200;SDS011;9226;47.858;9.594;2023-06-22T04:14:27;14.77;;;7.73;;
18200;SDS011;9226;47.858;9.594;2023-06-22T04:16:52;18.43;;;8.40;;
18200;SDS011;9226;47.858;9.594;2023-06-22T04:19:18;19.73;;;8.33;;
18200;SDS011;9226;47.858;9.594;2023-06-22T04:21:43;20.03;;;8.17;;
18200;SDS011;9226;47.858;9.594;2023-06-22T04:24:13;17.80;;;7.93;;
18200;SDS011;9226;47.858;9.594;2023-06-22T04:26:39;18.73;;;8.27;;
18200;SDS011;9226;47.858;9.594;2023-06-22T04:29:06;19.00;;;8.17;;
18200;SDS011;9226;47.858;9.594;2023-06-22T04:31:33;18.90;;;7.57;;
18200;SDS011;9226;47.858;9.594;2023-06-22T04:34:01;19.33;;;7.90;;
18200;SDS011;9226;47.858;9.594;2023-06-22T04:36:32;19.60;;;7.43;;
18200;SDS011;9226;47.858;9.594;2023-06-22T04:39:07;15.17;;;7.53;;
18200;SDS011;9226;47.858;9.594;2023-06-22T04:41:36;15.10;;;8.17;;
18200;SDS011;9226;47.858;9.594;2023-06-22T04:44:16;19.97;;;7.80;;
18200;SDS011;9226;47.858;9.594;2023-06-22T04:46:51;19.17;;;7.77;;
18200;SDS011;9226;47.858;9.594;2023-06-22T04:49:24;20.27;;;8.40;;
18200;SDS011;9226;47.858;9.594;2023-06-22T04:51:58;17.63;;;7.97;;
18200;SDS011;9226;47.858;9.594;2023-06-22T04:54:24;17.40;;;7.80;;
18200;SDS011;9226;47.858;9.594;2023-06-22T04:56:50;24.90;;;8.13;;
18200;SDS011;9226;47.858;9.594;2023-06-22T04:59:24;17.83;;;8.07;;
18200;SDS011;9226;47.858;9.594;2023-06-22T05:01:55;14.50;;;7.17;;
18200;SDS011;9226;47.858;9.594;2023-06-22T05:04:21;21.17;;;7.73;;
18200;SDS011;9226;47.858;9.594;2023-06-22T05:06:48;17.73;;;7.13;;
18200;SDS011;9226;47.858;9.594;2023-06-22T05:09:14;21.40;;;7.57;;
18200;SDS011;9226;47.858;9.594;2023-06-22T05:11:39;14.57;;;7.67;;
18200;SDS011;9226;47.858;9.594;2023-06-22T05:14:05;16.83;;;7.97;;
18200;SDS011;9226;47.858;9.594;2023-06-22T05:16:30;15.97;;;6.83;;
18200;SDS011;9226;47.858;9.594;2023-06-22T05:18:56;20.53;;;7.50;;
18200;SDS011;9226;47.858;9.594;2023-06-22T05:21:22;15.00;;;7.33;;
18200;SDS011;9226;47.858;9.594;2023-06-22T05:23:49;16.03;;;7.60;;
18200;SDS011;9226;47.858;9.594;2023-06-22T05:26:15;16.43;;;7.33;;
18200;SDS011;9226;47.858;9.594;2023-06-22T05:28:40;20.00;;;7.67;;
18200;SDS011;9226;47.858;9.594;2023-06-22T05:31:06;13.17;;;6.80;;
18200;SDS011;9226;47.858;9.594;2023-06-22T05:33:31;22.93;;;7.73;;
18200;SDS011;9226;47.858;9.594;2023-06-22T05:35:57;19.17;;;8.07;;
18200;SDS011;9226;47.858;9.594;2023-06-22T05:38:22;15.07;;;7.07;;
18200;SDS011;9226;47.858;9.594;2023-06-22T05:40:47;17.03;;;7.70;;
18200;SDS011;9226;47.858;9.594;2023-06-22T05:43:13;14.57;;;7.30;;
18200;SDS011;9226;47.858;9.594;2023-06-22T05:45:38;19.20;;;7.73;;
18200;SDS011;9226;47.858;9.594;2023-06-22T05:48:04;13.97;;;6.90;;
18200;SDS011;9226;47.858;9.594;2023-06-22T05:50:29;14.23;;;7.10;;
18200;SDS011;9226;47.858;9.594;2023-06-22T05:52:55;14.33;;;7.23;;
18200;SDS011;9226;47.858;9.594;2023-06-22T05:55:20;15.87;;;7.47;;
18200;SDS011;9226;47.858;9.594;2023-06-22T05:57:46;17.38;;;8.45;;
18200;SDS011;9226;47.858;9.594;2023-06-22T06:00:11;12.80;;;6.53;;
18200;SDS011;9226;47.858;9.594;2023-06-22T06:02:37;15.50;;;6.90;;
18200;SDS011;9226;47.858;9.594;2023-06-22T06:05:08;12.57;;;6.50;;
18200;SDS011;9226;47.858;9.594;2023-06-22T06:07:35;16.25;;;7.47;;
18200;SDS011;9226;47.858;9.594;2023-06-22T06:10:00;20.70;;;6.75;;
18200;SDS011;9226;47.858;9.594;2023-06-22T06:12:26;15.65;;;7.60;;
18200;SDS011;9226;47.858;9.594;2023-06-22T06:14:51;14.60;;;7.10;;
18200;SDS011;9226;47.858;9.594;2023-06-22T06:17:18;15.95;;;6.35;;
18200;SDS011;9226;47.858;9.594;2023-06-22T06:19:43;14.57;;;7.68;;
18200;SDS011;9226;47.858;9.594;2023-06-22T06:22:09;13.05;;;6.88;;
18200;SDS011;9226;47.858;9.594;2023-06-22T06:24:34;15.57;;;7.00;;
18200;SDS011;9226;47.858;9.594;2023-06-22T06:26:59;16.20;;;7.25;;
18200;SDS011;9226;47.858;9.594;2023-06-22T06:29:25;15.18;;;6.90;;
18200;SDS011;9226;47.858;9.594;2023-06-22T06:31:50;14.00;;;7.18;;
18200;SDS011;9226;47.858;9.594;2023-06-22T06:34:16;12.95;;;6.93;;
18200;SDS011;9226;47.858;9.594;2023-06-22T06:36:41;17.42;;;7.38;;
18200;SDS011;9226;47.858;9.594;2023-06-22T06:39:07;10.40;;;6.55;;
18200;SDS011;9226;47.858;9.594;2023-06-22T06:41:33;13.30;;;6.65;;
18200;SDS011;9226;47.858;9.594;2023-06-22T06:43:59;14.73;;;6.47;;
18200;SDS011;9226;47.858;9.594;2023-06-22T06:46:25;21.10;;;8.18;;
18200;SDS011;9226;47.858;9.594;2023-06-22T06:48:50;16.50;;;7.03;;
18200;SDS011;9226;47.858;9.594;2023-06-22T06:51:16;12.18;;;6.88;;
18200;SDS011;9226;47.858;9.594;2023-06-22T06:53:41;12.95;;;6.35;;
18200;SDS011;9226;47.858;9.594;2023-06-22T06:56:06;12.98;;;6.88;;
18200;SDS011;9226;47.858;9.594;2023-06-22T06:58:33;15.15;;;7.22;;
18200;SDS011;9226;47.858;9.594;2023-06-22T07:00:59;16.38;;;7.10;;
18200;SDS011;9226;47.858;9.594;2023-06-22T07:03:24;11.48;;;6.90;;
18200;SDS011;9226;47.858;9.594;2023-06-22T07:05:50;12.73;;;6.90;;
18200;SDS011;9226;47.858;9.594;2023-06-22T07:08:15;14.25;;;7.40;;
18200;SDS011;9226;47.858;9.594;2023-06-22T07:10:40;14.98;;;6.82;;
18200;SDS011;9226;47.858;9.594;2023-06-22T07:13:06;15.85;;;6.90;;
18200;SDS011;9226;47.858;9.594;2023-06-22T07:15:31;12.48;;;7.25;;
18200;SDS011;9226;47.858;9.594;2023-06-22T07:17:56;15.85;;;7.18;;
18200;SDS011;9226;47.858;9.594;2023-06-22T07:20:22;14.38;;;6.97;;
18200;SDS011;9226;47.858;9.594;2023-06-22T07:22:47;10.52;;;7.18;;
18200;SDS011;9226;47.858;9.594;2023-06-22T07:25:13;16.20;;;7.32;;
18200;SDS011;9226;47.858;9.594;2023-06-22T07:27:45;15.40;;;7.30;;
18200;SDS011;9226;47.858;9.594;2023-06-22T07:30:22;13.00;;;7.00;;
18200;SDS011;9226;47.858;9.594;2023-06-22T07:32:47;10.25;;;6.38;;
18200;SDS011;9226;47.858;9.594;2023-06-22T07:35:12;18.85;;;6.88;;
18200;SDS011;9226;47.858;9.594;2023-06-22T07:37:38;19.85;;;7.07;;
18200;SDS011;9226;47.858;9.594;2023-06-22T07:40:03;15.98;;;7.38;;
18200;SDS011;9226;47.858;9.594;2023-06-22T07:42:31;12.40;;;6.93;;
18200;SDS011;9226;47.858;9.594;2023-06-22T07:44:57;17.67;;;7.60;;
18200;SDS011;9226;47.858;9.594;2023-06-22T07:47:23;16.25;;;8.18;;
18200;SDS011;9226;47.858;9.594;2023-06-22T07:49:51;15.82;;;7.43;;
18200;SDS011;9226;47.858;9.594;2023-06-22T07:52:19;16.25;;;6.75;;
18200;SDS011;9226;47.858;9.594;2023-06-22T07:54:45;20.35;;;7.55;;
18200;SDS011;9226;47.858;9.594;2023-06-22T07:57:11;14.65;;;6.90;;
18200;SDS011;9226;47.858;9.594;2023-06-22T07:59:36;15.50;;;6.55;;
18200;SDS011;9226;47.858;9.594;2023-06-22T08:02:02;12.77;;;6.80;;
18200;SDS011;9226;47.858;9.594;2023-06-22T08:04:28;15.90;;;7.60;;
18200;SDS011;9226;47.858;9.594;2023-06-22T08:06:53;18.60;;;7.03;;
18200;SDS011;9226;47.858;9.594;2023-06-22T08:09:19;15.68;;;8.10;;
18200;SDS011;9226;47.858;9.594;2023-06-22T08:11:44;17.23;;;7.25;;
18200;SDS011;9226;47.858;9.594;2023-06-22T08:14:10;17.90;;;7.10;;
18200;SDS011;9226;47.858;9.594;2023-06-22T08:16:35;15.68;;;6.22;;
18200;SDS011;9226;47.858;9.594;2023-06-22T08:19:00;16.95;;;8.13;;
18200;SDS011;9226;47.858;9.594;2023-06-22T08:21:26;19.20;;;7.78;;
18200;SDS011;9226;47.858;9.594;2023-06-22T08:23:51;18.15;;;7.30;;
18200;SDS011;9226;47.858;9.594;2023-06-22T08:26:17;12.27;;;7.50;;
18200;SDS011;9226;47.858;9.594;2023-06-22T08:28:42;16.33;;;6.78;;
18200;SDS011;9226;47.858;9.594;2023-06-22T08:31:08;16.95;;;7.15;;
18200;SDS011;9226;47.858;9.594;2023-06-22T08:33:34;15.68;;;7.03;;
18200;SDS011;9226;47.858;9.594;2023-06-22T08:35:59;15.07;;;7.35;;
18200;SDS011;9226;47.858;9.594;2023-06-22T08:38:25;22.95;;;7.97;;
18200;SDS011;9226;47.858;9.594;2023-06-22T08:40:50;20.15;;;7.38;;
18200;SDS011;9226;47.858;9.594;2023-06-22T08:43:16;15.13;;;6.60;;
18200;SDS011;9226;47.858;9.594;2023-06-22T08:45:41;16.08;;;6.75;;
18200;SDS011;9226;47.858;9.594;2023-06-22T08:48:06;18.65;;;6.05;;
18200;SDS011;9226;47.858;9.594;2023-06-22T08:50:32;14.30;;;6.40;;
18200;SDS011;9226;47.858;9.594;2023-06-22T08:52:57;11.77;;;6.20;;
18200;SDS011;9226;47.858;9.594;2023-06-22T08:55:23;12.23;;;7.03;;
18200;SDS011;9226;47.858;9.594;2023-06-22T08:57:48;19.23;;;7.65;;
18200;SDS011;9226;47.858;9.594;2023-06-22T09:00:13;14.98;;;7.53;;
18200;SDS011;9226;47.858;9.594;2023-06-22T09:02:44;15.85;;;7.60;;
18200;SDS011;9226;47.858;9.594;2023-06-22T09:05:10;14.80;;;7.45;;
18200;SDS011;9226;47.858;9.594;2023-06-22T09:07:36;15.93;;;7.10;;
18200;SDS011;9226;47.858;9.594;2023-06-22T09:10:01;14.68;;;6.85;;
18200;SDS011;9226;47.858;9.594;2023-06-22T09:12:29;18.40;;;6.50;;
18200;SDS011;9226;47.858;9.594;2023-06-22T09:14:55;14.70;;;6.95;;
18200;SDS011;9226;47.858;9.594;2023-06-22T09:17:21;18.90;;;7.07;;
18200;SDS011;9226;47.858;9.594;2023-06-22T09:19:47;16.40;;;8.05;;
18200;SDS011;9226;47.858;9.594;2023-06-22T09:22:13;16.90;;;7.35;;
18200;SDS011;9226;47.858;9.594;2023-06-22T09:24:39;15.77;;;7.18;;
18200;SDS011;9226;47.858;9.594;2023-06-22T09:27:05;16.15;;;7.07;;
18200;SDS011;9226;47.858;9.594;2023-06-22T09:29:30;17.73;;;8.18;;
18200;SDS011;9226;47.858;9.594;2023-06-22T09:31:58;16.15;;;7.72;;
18200;SDS011;9226;47.858;9.594;2023-06-22T09:34:25;14.05;;;7.97;;
18200;SDS011;9226;47.858;9.594;2023-06-22T09:36:50;21.02;;;7.30;;
18200;SDS011;9226;47.858;9.594;2023-06-22T09:39:16;13.20;;;8.15;;
18200;SDS011;9226;47.858;9.594;2023-06-22T09:41:43;18.38;;;6.13;;
18200;SDS011;9226;47.858;9.594;2023-06-22T09:44:08;22.27;;;6.88;;
18200;SDS011;9226;47.858;9.594;2023-06-22T09:46:33;16.92;;;8.55;;
18200;SDS011;9226;47.858;9.594;2023-06-22T09:48:59;21.98;;;7.10;;
18200;SDS011;9226;47.858;9.594;2023-06-22T09:51:24;16.00;;;6.93;;
18200;SDS011;9226;47.858;9.594;2023-06-22T09:53:50;13.88;;;6.45;;
18200;SDS011;9226;47.858;9.594;2023-06-22T09:56:16;14.07;;;7.63;;
18200;SDS011;9226;47.858;9.594;2023-06-22T09:58:42;17.85;;;7.80;;
18200;SDS011;9226;47.858;9.594;2023-06-22T10:01:09;16.10;;;8.70;;
18200;SDS011;9226;47.858;9.594;2023-06-22T10:03:35;15.57;;;7.35;;
18200;SDS011;9226;47.858;9.594;2023-06-22T10:06:01;11.40;;;6.82;;
18200;SDS011;9226;47.858;9.594;2023-06-22T10:08:26;11.52;;;7.68;;
18200;SDS011;9226;47.858;9.594;2023-06-22T10:10:52;13.93;;;7.60;;
18200;SDS011;9226;47.858;9.594;2023-06-22T10:13:17;14.40;;;6.88;;
18200;SDS011;9226;47.858;9.594;2023-06-22T10:15:44;14.52;;;7.28;;
18200;SDS011;9226;47.858;9.594;2023-06-22T10:18:14;22.27;;;7.63;;
18200;SDS011;9226;47.858;9.594;2023-06-22T10:20:40;14.20;;;7.30;;
18200;SDS011;9226;47.858;9.594;2023-06-22T10:23:05;22.73;;;7.70;;
18200;SDS011;9226;47.858;9.594;2023-06-22T10:25:31;12.70;;;7.18;;
18200;SDS011;9226;47.858;9.594;2023-06-22T10:27:56;16.30;;;8.27;;
18200;SDS011;9226;47.858;9.594;2023-06-22T10:30:22;14.48;;;7.70;;
18200;SDS011;9226;47.858;9.594;2023-06-22T10:32:48;15.05;;;7.85;;
18200;SDS011;9226;47.858;9.594;2023-06-22T10:35:13;12.43;;;7.53;;
18200;SDS011;9226;47.858;9.594;2023-06-22T10:37:41;17.77;;;8.10;;
18200;SDS011;9226;47.858;9.594;2023-06-22T10:40:10;17.95;;;7.95;;
18200;SDS011;9226;47.858;9.594;2023-06-22T10:42:37;14.77;;;7.60;;
18200;SDS011;9226;47.858;9.594;2023-06-22T10:45:03;16.85;;;7.57;;
18200;SDS011;9226;47.858;9.594;2023-06-22T10:47:28;13.82;;;6.90;;
18200;SDS011;9226;47.858;9.594;2023-06-22T10:49:54;16.75;;;7.43;;
18200;SDS011;9226;47.858;9.594;2023-06-22T10:52:19;17.77;;;7.68;;
18200;SDS011;9226;47.858;9.594;2023-06-22T10:54:44;12.77;;;7.22;;
18200;SDS011;9226;47.858;9.594;2023-06-22T10:57:10;13.70;;;6.70;;
18200;SDS011;9226;47.858;9.594;2023-06-22T10:59:35;17.42;;;7.65;;
18200;SDS011;9226;47.858;9.594;2023-06-22T11:02:00;15.10;;;6.28;;
18200;SDS011;9226;47.858;9.594;2023-06-22T11:04:27;14.23;;;7.30;;
18200;SDS011;9226;47.858;9.594;2023-06-22T11:06:52;18.20;;;7.47;;
18200;SDS011;9226;47.858;9.594;2023-06-22T11:09:17;12.73;;;6.72;;
18200;SDS011;9226;47.858;9.594;2023-06-22T11:11:46;14.55;;;7.15;;
18200;SDS011;9226;47.858;9.594;2023-06-22T11:14:11;15.18;;;7.72;;
18200;SDS011;9226;47.858;9.594;2023-06-22T11:16:37;19.10;;;7.38;;
18200;SDS011;9226;47.858;9.594;2023-06-22T11:19:04;14.93;;;7.97;;
18200;SDS011;9226;47.858;9.594;2023-06-22T11:21:30;16.05;;;7.45;;
18200;SDS011;9226;47.858;9.594;2023-06-22T11:23:56;18.90;;;6.43;;
18200;SDS011;9226;47.858;9.594;2023-06-22T11:26:22;19.58;;;7.75;;
18200;SDS011;9226;47.858;9.594;2023-06-22T11:28:47;23.48;;;7.43;;
18200;SDS011;9226;47.858;9.594;2023-06-22T11:31:13;16.67;;;7.60;;
18200;SDS011;9226;47.858;9.594;2023-06-22T11:33:39;14.73;;;7.72;;
18200;SDS011;9226;47.858;9.594;2023-06-22T11:36:04;12.75;;;6.93;;
18200;SDS011;9226;47.858;9.594;2023-06-22T11:38:30;17.15;;;7.25;;
18200;SDS011;9226;47.858;9.594;2023-06-22T11:40:57;13.25;;;7.03;;
18200;SDS011;9226;47.858;9.594;2023-06-22T11:43:23;11.48;;;7.10;;
18200;SDS011;9226;47.858;9.594;2023-06-22T11:45:48;11.60;;;6.32;;
18200;SDS011;9226;47.858;9.594;2023-06-22T11:48:13;17.48;;;7.43;;
18200;SDS011;9226;47.858;9.594;2023-06-22T11:50:39;17.77;;;6.80;;
18200;SDS011;9226;47.858;9.594;2023-06-22T11:53:04;11.40;;;5.88;;
18200;SDS011;9226;47.858;9.594;2023-06-22T11:55:29;13.20;;;6.28;;
18200;SDS011;9226;47.858;9.594;2023-06-22T11:57:56;13.95;;;6.47;;
18200;SDS011;9226;47.858;9.594;2023-06-22T12:00:24;15.02;;;6.78;;
18200;SDS011;9226;47.858;9.594;2023-06-22T12:02:50;16.75;;;6.95;;
18200;SDS011;9226;47.858;9.594;2023-06-22T12:05:19;14.95;;;6.72;;
18200;SDS011;9226;47.858;9.594;2023-06-22T12:07:46;17.95;;;7.20;;
18200;SDS011;9226;47.858;9.594;2023-06-22T12:10:11;17.27;;;6.88;;
18200;SDS011;9226;47.858;9.594;2023-06-22T12:12:37;14.95;;;7.20;;
18200;SDS011;9226;47.858;9.594;2023-06-22T12:15:02;17.65;;;6.65;;
18200;SDS011;9226;47.858;9.594;2023-06-22T12:17:29;18.75;;;7.32;;
18200;SDS011;9226;47.858;9.594;2023-06-22T12:19:55;14.88;;;6.50;;
18200;SDS011;9226;47.858;9.594;2023-06-22T12:22:20;15.98;;;6.82;;
18200;SDS011;9226;47.858;9.594;2023-06-22T12:24:46;14.90;;;6.38;;
18200;SDS011;9226;47.858;9.594;2023-06-22T12:27:11;14.00;;;6.13;;
18200;SDS011;9226;47.858;9.594;2023-06-22T12:29:36;20.70;;;6.18;;
18200;SDS011;9226;47.858;9.594;2023-06-22T12:32:02;17.40;;;6.20;;
18200;SDS011;9226;47.858;9.594;2023-06-22T12:34:27;16.48;;;6.15;;
18200;SDS011;9226;47.858;9.594;2023-06-22T12:36:53;14.10;;;6.03;;
18200;SDS011;9226;47.858;9.594;2023-06-22T12:39:19;12.07;;;5.85;;
18200;SDS011;9226;47.858;9.594;2023-06-22T12:41:45;17.65;;;6.00;;
18200;SDS011;9226;47.858;9.594;2023-06-22T12:44:11;13.82;;;5.65;;
18200;SDS011;9226;47.858;9.594;2023-06-22T12:46:36;14.68;;;6.40;;
18200;SDS011;9226;47.858;9.594;2023-06-22T12:49:03;19.42;;;6.43;;
18200;SDS011;9226;47.858;9.594;2023-06-22T12:51:29;15.45;;;5.82;;
18200;SDS011;9226;47.858;9.594;2023-06-22T12:53:55;15.35;;;5.85;;
18200;SDS011;9226;47.858;9.594;2023-06-22T12:56:20;18.63;;;6.05;;
18200;SDS011;9226;47.858;9.594;2023-06-22T12:58:45;10.93;;;6.10;;
18200;SDS011;9226;47.858;9.594;2023-06-22T13:01:11;21.70;;;5.88;;
18200;SDS011;9226;47.858;9.594;2023-06-22T13:03:36;17.65;;;6.70;;
18200;SDS011;9226;47.858;9.594;2023-06-22T13:06:02;15.40;;;5.57;;
18200;SDS011;9226;47.858;9.594;2023-06-22T13:08:28;16.42;;;5.88;;
18200;SDS011;9226;47.858;9.594;2023-06-22T13:10:54;21.98;;;7.20;;
18200;SDS011;9226;47.858;9.594;2023-06-22T13:13:21;14.00;;;5.85;;
18200;SDS011;9226;47.858;9.594;2023-06-22T13:15:49;12.98;;;5.40;;
18200;SDS011;9226;47.858;9.594;2023-06-22T13:18:15;16.98;;;6.05;;
18200;SDS011;9226;47.858;9.594;2023-06-22T13:20:41;17.52;;;6.05;;
18200;SDS011;9226;47.858;9.594;2023-06-22T13:23:06;16.98;;;5.72;;
18200;SDS011;9226;47.858;9.594;2023-06-22T13:25:31;17.67;;;5.93;;
18200;SDS011;9226;47.858;9.594;2023-06-22T13:27:57;12.25;;;5.55;;
18200;SDS011;9226;47.858;9.594;2023-06-22T13:30:22;10.30;;;5.35;;
18200;SDS011;9226;47.858;9.594;2023-06-22T13:32:48;16.67;;;5.28;;
18200;SDS011;9226;47.858;9.594;2023-06-22T13:35:13;11.38;;;5.28;;
18200;SDS011;9226;47.858;9.594;2023-06-22T13:37:39;15.48;;;5.93;;
18200;SDS011;9226;47.858;9.594;2023-06-22T13:40:05;15.02;;;5.60;;
18200;SDS011;9226;47.858;9.594;2023-06-22T13:42:32;15.35;;;6.25;;
18200;SDS011;9226;47.858;9.594;2023-06-22T13:44:58;18.05;;;5.47;;
18200;SDS011;9226;47.858;9.594;2023-06-22T13:47:23;14.73;;;5.72;;
18200;SDS011;9226;47.858;9.594;2023-06-22T13:49:48;14.75;;;5.45;;
18200;SDS011;9226;47.858;9.594;2023-06-22T13:52:14;15.68;;;5.60;;
18200;SDS011;9226;47.858;9.594;2023-06-22T13:54:39;13.65;;;5.10;;
18200;SDS011;9226;47.858;9.594;2023-06-22T13:57:05;14.15;;;5.60;;
18200;SDS011;9226;47.858;9.594;2023-06-22T13:59:30;18.27;;;5.95;;
18200;SDS011;9226;47.858;9.594;2023-06-22T14:01:56;16.23;;;5.65;;
18200;SDS011;9226;47.858;9.594;2023-06-22T14:04:22;16.92;;;6.00;;
18200;SDS011;9226;47.858;9.594;2023-06-22T14:06:48;17.42;;;5.75;;
18200;SDS011;9226;47.858;9.594;2023-06-22T14:09:13;12.13;;;5.25;;
18200;SDS011;9226;47.858;9.594;2023-06-22T14:11:39;19.52;;;5.35;;
18200;SDS011;9226;47.858;9.594;2023-06-22T14:14:04;13.68;;;5.28;;
18200;SDS011;9226;47.858;9.594;2023-06-22T14:16:30;15.73;;;5.82;;
18200;SDS011;9226;47.858;9.594;2023-06-22T14:18:55;18.30;;;5.50;;
18200;SDS011;9226;47.858;9.594;2023-06-22T14:21:20;13.05;;;5.78;;
18200;SDS011;9226;47.858;9.594;2023-06-22T14:23:46;17.25;;;5.93;;
18200;SDS011;9226;47.858;9.594;2023-06-22T14:26:14;14.10;;;5.60;;
18200;SDS011;9226;47.858;9.594;2023-06-22T14:28:42;18.20;;;6.72;;
18200;SDS011;9226;47.858;9.594;2023-06-22T14:31:12;15.80;;;5.82;;
18200;SDS011;9226;47.858;9.594;2023-06-22T14:33:39;17.17;;;6.18;;
18200;SDS011;9226;47.858;9.594;2023-06-22T14:36:05;12.23;;;5.45;;
18200;SDS011;9226;47.858;9.594;2023-06-22T14:38:30;13.63;;;6.03;;
18200;SDS011;9226;47.858;9.594;2023-06-22T14:40:55;13.65;;;5.88;;
18200;SDS011;9226;47.858;9.594;2023-06-22T14:43:21;13.80;;;5.72;;
18200;SDS011;9226;47.858;9.594;2023-06-22T14:45:46;12.35;;;6.22;;
18200;SDS011;9226;47.858;9.594;2023-06-22T14:48:11;17.05;;;6.40;;
18200;SDS011;9226;47.858;9.594;2023-06-22T14:50:37;14.35;;;6.32;;